Time;durP1;ratioP1;P1;durP2;ratioP2;P2;SDS_P1;SDS_P2;PMS_P1;PMS_P2;Temp;Humidity;BMP_temperature;BMP_pressure;BME280_temperature;BME280_humidity;BME280_pressure;Samples;Min_cycle;Max_cycle;Signal;HPM_P1;HPM_P2
2023/01/25 00:02:43;;;;;;;25.58;11.35;;;;;;;-0.11;92.25;99094.69;10285479;28;20347;-46
2023/01/25 00:07:42;;;;;;;28.88;13.23;;;;;;;-0.14;93.00;99101.25;10288536;28;20465;-47
2023/01/25 00:12:41;;;;;;;;;;;;;;;0.06;92.36;99111.03;10294693;28;20112;-47
2023/01/25 00:17:40;;;;;;;20.45;10.68;;;;;;;-0.02;91.98;99066.28;10292962;28;19921;-47
2023/01/25 00:22:39;;;;;;;21.35;11.18;;;;;;;-0.05;91.96;99041.47;10292486;28;20060;-46
2023/01/25 00:27:39;;;;;;;17.05;9.27;;;;;;;-0.13;91.97;99068.19;10292466;28;20080;-47
2023/01/25 00:33:30;;;;;;;17.08;9.32;;;;;;;-0.27;92.55;99097.06;10291923;28;20093;-48
2023/01/25 00:38:33;;;;;;;17.45;9.07;;;;;;;-0.41;92.56;99106.38;10290954;28;20129;-46
2023/01/25 00:43:32;;;;;;;23.48;10.30;;;;;;;-0.41;92.80;99101.28;10291916;28;20116;-46
2023/01/25 00:48:31;;;;;;;20.92;9.43;;;;;;;-0.63;93.06;99104.13;10293134;28;20117;-47
2023/01/25 00:53:30;;;;;;;;;;;;;;;-0.31;92.62;99088.31;10293089;28;20030;-46
2023/01/25 00:58:29;;;;;;;20.27;9.50;;;;;;;-0.14;92.23;99096.16;10292361;28;20004;-47
2023/01/25 01:03:28;;;;;;;17.58;8.60;;;;;;;-0.62;92.27;99054.91;10292745;28;20030;-48
2023/01/25 01:08:27;;;;;;;;;;;;;;;-0.41;92.10;99094.50;10292546;28;20062;-49
2023/01/25 01:13:27;;;;;;;20.57;10.70;;;;;;;-0.41;92.36;99102.16;10292107;28;19917;-46
2023/01/25 01:18:25;;;;;;;25.52;12.85;;;;;;;-0.35;92.53;99073.59;10291823;28;20069;-46
2023/01/25 01:23:24;;;;;;;22.67;9.10;;;;;;;-0.54;91.88;99063.91;10291871;28;20113;-47
2023/01/25 01:28:23;;;;;;;;;;;;;;;-0.49;92.40;99088.03;10291780;28;20038;-47
2023/01/25 01:33:22;;;;;;;26.92;12.73;;;;;;;-0.60;93.09;99068.66;10291428;28;19913;-47
2023/01/25 01:38:21;;;;;;;22.05;10.02;;;;;;;-0.48;93.05;99064.31;10291452;28;20129;-48
2023/01/25 01:43:23;;;;;;;;;;;;;;;-0.40;92.84;99086.06;10291291;28;20049;-47
2023/01/25 01:48:37;;;;;;;29.05;11.73;;;;;;;-0.48;92.43;99071.97;10290948;28;19963;-50
2023/01/25 01:53:37;;;;;;;30.55;13.48;;;;;;;-0.70;93.46;99072.25;10290748;28;20073;-49
2023/01/25 01:58:36;;;;;;;29.88;14.32;;;;;;;-0.66;93.98;99071.66;10288430;28;20066;-48
2023/01/25 02:03:36;;;;;;;26.60;13.82;;;;;;;-0.67;94.18;99077.56;10288544;28;20086;-50
2023/01/25 02:08:35;;;;;;;33.08;15.93;;;;;;;-0.54;93.96;99068.13;10290017;28;20473;-49
2023/01/25 02:13:36;;;;;;;56.28;31.67;;;;;;;-0.63;94.18;99076.94;10289657;28;20073;-47
2023/01/25 02:18:35;;;;;;;23.65;11.98;;;;;;;-0.66;94.39;99070.78;10288612;28;20073;-47
2023/01/25 02:23:46;;;;;;;26.75;13.85;;;;;;;-0.62;94.47;99055.78;10285044;28;20044;-49
2023/01/25 02:28:53;;;;;;;22.17;12.70;;;;;;;-0.47;94.17;99050.75;10286006;28;20551;-47
2023/01/25 02:33:52;;;;;;;27.70;13.85;;;;;;;-0.60;94.28;99048.25;10285981;28;20069;-49
2023/01/25 02:39:16;;;;;;;23.75;11.32;;;;;;;-0.41;93.39;99050.28;10301916;28;20069;-47
2023/01/25 02:44:22;;;;;;;27.45;14.40;;;;;;;-0.31;93.74;99049.19;10282268;28;20132;-48
2023/01/25 02:49:21;;;;;;;27.70;13.95;;;;;;;-0.16;93.66;99052.69;10284372;28;20104;-49
2023/01/25 02:54:21;;;;;;;27.27;14.13;;;;;;;-0.42;93.28;99059.56;10284854;28;20065;-47
2023/01/25 02:59:20;;;;;;;33.20;18.73;;;;;;;-0.45;94.08;99044.09;10286265;28;20070;-48
2023/01/25 03:04:19;;;;;;;;;;;;;;;-0.43;93.42;99047.63;10286036;28;20136;-48
2023/01/25 03:09:17;;;;;;;20.48;8.52;;;;;;;-0.18;93.86;99046.63;10284911;28;19960;-48
2023/01/25 03:14:16;;;;;;;;;;;;;;;-0.01;93.44;99043.44;10285846;28;20113;-48
2023/01/25 03:19:15;;;;;;;22.73;11.57;;;;;;;0.16;93.00;99034.25;10285791;28;19963;-48
2023/01/25 03:24:14;;;;;;;;;;;;;;;0.01;92.16;99026.53;10277609;28;20739;-47
2023/01/25 03:29:13;;;;;;;28.75;13.40;;;;;;;-0.17;92.33;98999.91;10284877;28;20359;-50
2023/01/25 03:34:12;;;;;;;21.65;10.93;;;;;;;0.17;92.60;99022.34;10300589;28;20489;-49
2023/01/25 03:39:11;;;;;;;;;;;;;;;0.15;91.64;99024.84;10284773;28;20489;-47
2023/01/25 03:44:12;;;;;;;22.25;11.10;;;;;;;0.21;91.46;99029.41;10288561;28;19935;-48
2023/01/25 03:49:11;;;;;;;21.75;10.63;;;;;;;0.15;92.05;98998.44;10292716;28;20091;-49
2023/01/25 03:54:11;;;;;;;25.80;11.90;;;;;;;0.44;92.38;99023.13;10291047;28;20114;-49
2023/01/25 03:59:10;;;;;;;;;;;;;;;0.38;91.16;99026.22;10293516;28;20080;-48
2023/01/25 04:04:09;;;;;;;23.65;11.35;;;;;;;0.42;91.75;99024.69;10291219;28;19983;-48
2023/01/25 04:09:08;;;;;;;;;;;;;;;0.46;91.62;99031.75;10288931;28;20113;-50
2023/01/25 04:14:07;;;;;;;21.73;10.90;;;;;;;0.57;91.67;99022.16;10291183;28;19913;-49
2023/01/25 04:19:06;;;;;;;;;;;;;;;0.56;91.16;99028.94;10291978;28;20109;-49
2023/01/25 04:24:05;;;;;;;20.63;9.85;;;;;;;0.68;91.36;99033.91;10290590;28;19921;-48
2023/01/25 04:29:03;;;;;;;;;;;;;;;0.61;91.25;99032.66;10291613;28;20080;-50
2023/01/25 04:34:02;;;;;;;20.58;9.38;;;;;;;0.64;91.15;99025.19;10290338;28;19918;-49
2023/01/25 04:39:01;;;;;;;27.50;11.80;;;;;;;0.25;89.31;99005.84;10290799;28;20142;-47
2023/01/25 04:44:00;;;;;;;25.10;10.20;;;;;;;0.37;90.97;99024.44;10290770;28;20040;-50
2023/01/25 04:48:59;;;;;;;23.13;10.63;;;;;;;0.42;90.89;99020.47;10288443;28;20029;-48
2023/01/25 04:53:58;;;;;;;19.70;10.88;;;;;;;0.48;90.45;99018.28;10288898;28;20112;-47
2023/01/25 04:58:57;;;;;;;19.35;10.68;;;;;;;0.32;89.65;98992.66;10290883;28;20124;-48
2023/01/25 05:03:56;;;;;;;21.77;10.25;;;;;;;0.50;90.93;99027.69;10289909;28;20100;-47
2023/01/25 05:08:55;;;;;;;18.45;9.90;;;;;;;0.60;90.68;99032.59;10290030;28;20030;-48
2023/01/25 05:13:53;;;;;;;;;;;;;;;0.64;90.25;99027.75;10288966;28;20034;-49
2023/01/25 05:18:55;;;;;;;25.00;12.80;;;;;;;0.48;90.29;99018.28;10288505;28;20416;-50
2023/01/25 05:23:54;;;;;;;21.63;10.43;;;;;;;0.38;89.66;99021.09;10288056;28;20080;-47
2023/01/25 05:28:53;;;;;;;23.65;11.32;;;;;;;0.39;89.73;99032.19;10287922;28;20124;-47
2023/01/25 05:33:52;;;;;;;24.45;12.63;;;;;;;0.26;89.39;99026.38;10284739;28;20488;-48
2023/01/25 05:38:51;;;;;;;21.15;10.98;;;;;;;0.38;90.32;99038.97;10289400;28;20424;-47
2023/01/25 05:43:50;;;;;;;21.42;11.70;;;;;;;-0.77;89.82;98847.47;10283492;28;20066;-50
2023/01/25 05:48:49;;;;;;;24.98;11.25;;;;;;;0.29;89.70;99034.97;10251407;28;20109;-47
2023/01/25 05:53:48;;;;;;;19.77;10.10;;;;;;;0.17;89.43;99037.66;10286291;28;20061;-50
2023/01/25 05:58:55;;;;;;;24.40;11.77;;;;;;;-0.00;89.23;99044.31;10290815;28;20022;-50
2023/01/25 06:03:54;;;;;;;26.10;13.18;;;;;;;0.07;90.60;99046.44;10289532;28;20485;-50
2023/01/25 06:08:53;;;;;;;26.02;11.80;;;;;;;0.21;90.98;99048.16;10287148;28;20080;-49
2023/01/25 06:13:52;;;;;;;21.95;11.80;;;;;;;0.16;90.70;99046.13;10287762;28;20129;-48
2023/01/25 06:18:51;;;;;;;26.67;11.95;;;;;;;0.33;90.05;99055.66;10289424;28;20045;-48
2023/01/25 06:23:50;;;;;;;32.63;16.35;;;;;;;0.42;90.43;99047.69;10289428;28;20096;-48
2023/01/25 06:28:49;;;;;;;33.58;17.90;;;;;;;0.55;90.75;99051.88;10288009;28;20069;-50
2023/01/25 06:33:49;;;;;;;;;;;;;;;0.63;89.95;99046.41;10288559;28;20034;-47
2023/01/25 06:38:49;;;;;;;26.23;13.55;;;;;;;0.71;90.07;99043.41;10289011;28;20579;-48
2023/01/25 06:43:52;;;;;;;23.20;13.00;;;;;;;0.84;90.52;99036.53;10289291;28;20485;-47
2023/01/25 06:48:51;;;;;;;19.45;10.23;;;;;;;0.53;88.73;98987.03;10288612;28;20068;-48
2023/01/25 06:53:49;;;;;;;;;;;;;;;0.82;89.03;99039.81;10287745;28;20073;-47
2023/01/25 06:58:49;;;;;;;23.90;11.63;;;;;;;0.94;88.59;99037.94;10285060;28;20046;-49
2023/01/25 07:03:50;;;;;;;680.67;286.70;;;;;;;0.74;88.51;99034.25;10286882;28;20057;-47
2023/01/25 07:08:49;;;;;;;113.00;53.85;;;;;;;0.62;88.61;99031.88;10288098;28;20084;-47
2023/01/25 07:13:48;;;;;;;22.67;12.40;;;;;;;0.71;88.18;99049.44;10286630;28;20050;-47
2023/01/25 07:18:47;;;;;;;27.10;14.63;;;;;;;0.81;88.79;99051.72;10287616;28;20030;-48
2023/01/25 07:23:48;;;;;;;26.77;12.60;;;;;;;0.73;87.95;99032.47;10286900;28;20065;-47
2023/01/25 07:28:47;;;;;;;18.83;11.93;;;;;;;1.02;88.01;99048.63;10284867;28;20082;-48
2023/01/25 07:33:48;;;;;;;25.95;13.35;;;;;;;0.87;89.18;98965.19;10285019;28;20061;-49
2023/01/25 07:38:48;;;;;;;18.10;10.18;;;;;;;1.41;85.70;99039.78;10257820;28;20121;-48
2023/01/25 07:43:47;;;;;;;;;;;;;;;1.52;87.69;99032.69;10287331;28;20575;-47
2023/01/25 07:48:48;;;;;;;20.75;10.90;;;;;;;1.57;85.07;99041.50;10287273;28;20386;-49
2023/01/25 07:53:50;;;;;;;20.25;11.48;;;;;;;1.41;85.92;99034.66;10287098;28;20069;-48
2023/01/25 07:58:52;;;;;;;19.27;11.68;;;;;;;1.53;86.28;99029.34;10286832;28;20592;-49
2023/01/25 08:03:51;;;;;;;22.13;12.73;;;;;;;1.50;84.20;99031.72;10286525;28;20069;-49
2023/01/25 08:08:50;;;;;;;74.43;43.28;;;;;;;1.50;85.35;99034.28;10279079;28;20069;-49
2023/01/25 08:13:49;;;;;;;21.13;11.27;;;;;;;1.37;84.21;99029.28;10286075;28;20106;-47
2023/01/25 08:18:57;;;;;;;86.70;52.17;;;;;;;1.48;86.20;99043.53;10287032;28;20104;-47
2023/01/25 08:24:02;;;;;;;56.53;31.13;;;;;;;1.55;84.43;99045.63;10298866;28;20061;-48
2023/01/25 08:29:01;;;;;;;16.77;9.18;;;;;;;1.35;83.93;99042.00;10287345;28;20081;-47
2023/01/25 08:34:01;;;;;;;30.10;15.65;;;;;;;0.94;85.52;99062.63;10287460;28;20082;-50
2023/01/25 08:39:04;;;;;;;33.53;18.67;;;;;;;1.25;86.48;99058.50;10291770;28;20069;-50
2023/01/25 08:44:04;;;;;;;35.53;19.45;;;;;;;1.24;85.05;99038.81;10292037;28;20081;-49
2023/01/25 08:49:04;;;;;;;23.85;13.40;;;;;;;1.23;84.08;99052.41;10292545;28;20922;-47
2023/01/25 08:54:09;;;;;;;38.88;18.95;;;;;;;1.26;85.46;99055.13;10292806;28;20074;-48
2023/01/25 08:59:12;;;;;;;18.88;10.65;;;;;;;1.35;85.22;99048.78;10293022;28;20528;-47
2023/01/25 09:04:11;;;;;;;12.80;7.00;;;;;;;0.99;84.88;99061.22;10290097;28;20096;-49
2023/01/25 09:09:12;;;;;;;73.25;33.75;;;;;;;1.22;86.95;99045.50;10292157;28;20106;-47
2023/01/25 09:14:10;;;;;;;81.85;38.92;;;;;;;1.64;86.59;99035.91;10291293;28;20092;-47
2023/01/25 09:19:10;;;;;;;21.05;12.30;;;;;;;1.89;84.81;99035.56;10292360;28;20137;-48
2023/01/25 09:24:09;;;;;;;14.50;9.10;;;;;;;1.93;84.99;99029.81;10291601;28;20062;-47
2023/01/25 09:29:09;;;;;;;15.05;9.35;;;;;;;2.02;83.15;99011.53;10292169;28;20038;-47
2023/01/25 09:34:12;;;;;;;18.90;10.82;;;;;;;2.05;82.67;99001.44;10291431;28;20128;-48
2023/01/25 09:39:11;;;;;;;25.38;14.68;;;;;;;1.78;84.36;98938.53;10290594;28;20065;-49
2023/01/25 09:44:11;;;;;;;;;;;;;;;2.23;82.76;98998.06;10290828;28;20072;-48
2023/01/25 09:49:35;;;;;;;22.38;12.70;;;;;;;2.13;81.89;98992.44;10289042;28;20037;-49
2023/01/25 09:54:39;;;;;;;22.50;12.65;;;;;;;2.15;82.45;98978.06;10290611;28;20080;-47
2023/01/25 09:59:40;;;;;;;18.70;11.45;;;;;;;1.95;81.45;98981.28;10289967;28;20098;-49
2023/01/25 10:04:43;;;;;;;23.52;13.70;;;;;;;1.48;83.27;98972.81;10289771;28;20065;-47
2023/01/25 10:10:02;;;;;;;29.20;16.90;;;;;;;1.52;81.84;98968.72;10290218;28;20065;-48
2023/01/25 10:15:26;;;;;;;22.83;14.00;;;;;;;1.51;81.03;98962.75;10264018;28;20081;-49
2023/01/25 10:20:38;;;;;;;19.08;11.55;;;;;;;1.29;83.08;98958.16;10280402;28;20153;-49
2023/01/25 10:25:44;;;;;;;26.85;17.35;;;;;;;1.31;83.42;98946.31;10285877;28;20077;-46
2023/01/25 10:30:55;;;;;;;18.40;9.80;;;;;;;0.89;83.14;98881.81;10267907;28;20146;-48
2023/01/25 10:35:58;;;;;;;27.25;16.63;;;;;;;1.24;84.33;98923.75;10276458;28;20113;-47
2023/01/25 10:41:10;;;;;;;21.45;13.43;;;;;;;1.07;83.02;98893.84;10283844;28;20128;-47
2023/01/25 10:46:18;;;;;;;24.00;15.45;;;;;;;1.24;82.83;98908.41;10282571;28;20077;-46
2023/01/25 10:51:35;;;;;;;27.60;18.67;;;;;;;1.11;84.23;98898.34;10282146;28;20065;-49
2023/01/25 10:56:38;;;;;;;17.40;11.07;;;;;;;1.12;84.86;98894.97;10283234;28;20057;-47
2023/01/25 11:01:37;;;;;;;22.85;12.68;;;;;;;0.84;83.86;98815.91;10284637;28;20075;-48
2023/01/25 11:06:46;;;;;;;25.80;14.63;;;;;;;1.17;84.31;98867.97;10278633;28;20532;-46
2023/01/25 11:12:03;;;;;;;27.73;17.90;;;;;;;1.28;84.92;98884.78;10284828;28;20061;-49
2023/01/25 11:17:04;;;;;;;24.77;15.50;;;;;;;0.95;82.24;98785.84;10285259;28;20501;-47
2023/01/25 11:22:25;;;;;;;25.60;16.58;;;;;;;1.39;82.68;98858.88;10284648;28;20113;-48
2023/01/25 11:27:26;;;;;;;18.63;10.57;;;;;;;1.23;82.46;98872.56;10283485;28;20069;-47
2023/01/25 11:32:25;;;;;;;22.58;13.75;;;;;;;1.40;82.52;98873.44;10283991;28;20085;-49
2023/01/25 11:37:33;;;;;;;21.88;12.85;;;;;;;1.41;83.11;98862.41;10283428;28;20108;-47
2023/01/25 11:42:32;;;;;;;23.50;13.23;;;;;;;1.44;83.50;98847.25;10283830;28;20072;-48
2023/01/25 11:47:50;;;;;;;23.42;13.40;;;;;;;1.36;84.08;98851.06;10282491;28;20109;-48
2023/01/25 11:53:27;;;;;;;20.13;11.82;;;;;;;1.32;84.06;98843.25;10281261;28;20105;-47
2023/01/25 11:58:29;;;;;;;21.20;11.88;;;;;;;1.50;83.64;98839.88;10272014;28;20112;-47
2023/01/25 12:03:49;;;;;;;20.92;12.25;;;;;;;1.36;82.07;98830.59;10286994;28;20085;-49
2023/01/25 12:09:18;;;;;;;20.67;11.77;;;;;;;1.03;81.68;98767.53;10289243;28;20076;-49
2023/01/25 12:14:26;;;;;;;20.15;12.07;;;;;;;1.40;82.38;98814.63;10312620;28;20474;-49
2023/01/25 12:20:03;;;;;;;79.50;34.67;;;;;;;1.23;83.24;98808.63;10291984;28;20101;-47
2023/01/25 12:25:29;;;;;;;131.57;48.05;;;;;;;1.01;83.12;98809.16;10293109;28;20077;-46
2023/01/25 12:30:34;;;;;;;23.90;13.07;;;;;;;0.97;83.68;98803.03;10291445;28;20092;-47
2023/01/25 12:35:38;;;;;;;20.35;10.48;;;;;;;0.83;83.99;98799.72;10292898;28;20536;-46
2023/01/25 12:40:58;;;;;;;21.48;12.18;;;;;;;0.87;83.59;98803.31;10285842;28;20486;-49
2023/01/25 12:46:09;;;;;;;28.85;17.05;;;;;;;1.08;83.80;98789.13;10293108;28;20080;-49
2023/01/25 12:51:09;;;;;;;21.02;11.23;;;;;;;1.21;82.56;98774.44;10292495;28;20072;-47
2023/01/25 12:56:32;;;;;;;18.90;10.18;;;;;;;1.17;81.78;98765.72;10291362;28;20076;-48
2023/01/25 13:01:39;;;;;;;23.27;13.35;;;;;;;1.07;81.80;98740.47;10290220;28;20081;-48
2023/01/25 13:06:58;;;;;;;26.95;14.52;;;;;;;1.01;82.75;98771.69;10290569;28;20073;-50
2023/01/25 13:11:58;;;;;;;23.98;14.13;;;;;;;1.18;83.43;98759.81;10281514;28;20135;-49
2023/01/25 13:17:19;;;;;;;18.80;10.85;;;;;;;1.10;82.07;98772.19;10289355;28;20069;-53
2023/01/25 13:22:42;;;;;;;16.63;9.13;;;;;;;1.04;82.41;98763.34;10286936;28;20137;-48
2023/01/25 13:27:42;;;;;;;28.13;16.27;;;;;;;1.09;82.30;98756.78;10291029;28;20497;-49
2023/01/25 13:32:44;;;;;;;22.20;13.07;;;;;;;1.20;82.46;98758.22;10286205;28;20081;-50
2023/01/25 13:37:43;;;;;;;19.90;11.43;;;;;;;1.13;82.71;98756.16;10288095;28;20477;-49
2023/01/25 13:42:59;;;;;;;21.52;12.95;;;;;;;1.22;82.68;98750.63;10283839;28;20493;-49
2023/01/25 13:48:12;;;;;;;16.80;10.00;;;;;;;1.03;82.11;98756.44;10287155;28;20072;-48
2023/01/25 13:53:13;;;;;;;29.17;16.02;;;;;;;0.96;82.71;98750.13;10288378;28;20125;-47
2023/01/25 13:58:19;;;;;;;20.73;11.80;;;;;;;0.90;82.33;98755.81;10287286;28;20073;-47
2023/01/25 14:03:21;;;;;;;27.70;16.35;;;;;;;0.58;82.25;98697.00;10285448;28;20120;-49
2023/01/25 14:08:21;;;;;;;27.77;16.52;;;;;;;0.18;83.01;98654.91;10303016;28;20611;-48
2023/01/25 14:13:20;;;;;;;22.02;11.70;;;;;;;0.55;83.58;98755.59;10288387;28;20089;-48
2023/01/25 14:18:21;;;;;;;30.23;16.70;;;;;;;0.72;82.64;98757.38;10286964;28;20076;-49
2023/01/25 14:23:25;;;;;;;22.58;13.32;;;;;;;0.63;83.58;98751.78;10286803;28;20088;-48
2023/01/25 14:28:25;;;;;;;18.70;10.45;;;;;;;0.69;84.12;98752.97;10286178;28;20078;-48
2023/01/25 14:33:34;;;;;;;27.52;19.65;;;;;;;0.88;83.76;98762.50;10287341;28;20069;-50
2023/01/25 14:38:38;;;;;;;23.50;14.83;;;;;;;0.76;83.14;98769.53;10287392;28;20085;-48
2023/01/25 14:43:41;;;;;;;30.30;20.05;;;;;;;0.84;83.22;98768.25;10287059;28;20090;-49
2023/01/25 14:48:41;;;;;;;32.85;22.02;;;;;;;0.70;83.24;98735.97;10285332;28;20066;-48
2023/01/25 14:53:45;;;;;;;35.85;21.88;;;;;;;0.78;84.04;98757.72;10287861;28;20065;-48
2023/01/25 14:58:44;;;;;;;23.83;14.40;;;;;;;0.82;83.95;98756.19;10287088;28;20089;-49
2023/01/25 15:03:43;;;;;;;20.23;13.40;;;;;;;0.69;83.53;98759.78;10283333;28;20045;-48
2023/01/25 15:08:42;;;;;;;26.27;15.55;;;;;;;0.67;84.13;98748.59;10286593;28;20111;-49
2023/01/25 15:13:41;;;;;;;25.98;16.48;;;;;;;0.72;84.11;98738.63;10285261;28;20046;-50
2023/01/25 15:18:51;;;;;;;22.92;15.13;;;;;;;-0.09;83.81;98579.41;10286630;28;20087;-48
2023/01/25 15:23:51;;;;;;;39.13;23.17;;;;;;;0.83;83.45;98740.09;10283379;28;20906;-49
2023/01/25 15:28:53;;;;;;;22.85;11.85;;;;;;;0.89;83.20;98736.16;10274302;28;20494;-50
2023/01/25 15:33:54;;;;;;;24.35;12.82;;;;;;;0.66;83.23;98731.50;10286263;28;20069;-50
2023/01/25 15:38:53;;;;;;;43.85;24.10;;;;;;;0.73;83.66;98756.56;10290759;28;20077;-50
2023/01/25 15:43:52;;;;;;;32.05;17.40;;;;;;;0.74;83.10;98744.69;10294949;28;20088;-48
2023/01/25 15:48:52;;;;;;;21.35;9.43;;;;;;;0.48;83.78;98759.50;10295344;28;20053;-48
2023/01/25 15:53:51;;;;;;;26.67;14.93;;;;;;;0.26;84.13;98762.50;10294251;28;20111;-47
2023/01/25 15:58:52;;;;;;;31.83;18.30;;;;;;;0.15;83.90;98717.69;10294748;28;20089;-47
2023/01/25 16:03:55;;;;;;;24.55;14.40;;;;;;;0.39;83.90;98751.31;10279954;28;20484;-50
2023/01/25 16:08:54;;;;;;;18.23;9.00;;;;;;;0.30;84.35;98745.72;10294157;28;20065;-48
2023/01/25 16:13:53;;;;;;;19.90;11.07;;;;;;;0.37;84.24;98761.44;10292270;28;20087;-49
2023/01/25 16:18:52;;;;;;;;;;;;;;;0.18;84.45;98756.13;10294333;28;20070;-48
2023/01/25 16:23:51;;;;;;;13.00;7.43;;;;;;;0.17;85.04;98756.91;10265038;28;19913;-47
2023/01/25 16:28:50;;;;;;;12.55;6.65;;;;;;;0.18;84.54;98758.69;10291499;28;20432;-47
2023/01/25 16:33:49;;;;;;;;;;;;;;;0.25;84.58;98756.53;10318304;28;20118;-48
2023/01/25 16:38:48;;;;;;;11.82;6.28;;;;;;;0.18;84.92;98762.09;10289397;28;20008;-47
2023/01/25 16:43:47;;;;;;;;;;;;;;;0.19;84.53;98747.66;10290508;28;20076;-47
2023/01/25 16:48:48;;;;;;;13.65;7.43;;;;;;;0.19;84.62;98750.22;10290016;28;19956;-48
2023/01/25 16:53:49;;;;;;;15.90;7.95;;;;;;;0.14;84.68;98746.53;10284303;28;20129;-50
2023/01/25 16:58:49;;;;;;;16.15;9.38;;;;;;;0.19;84.55;98730.66;10273639;28;20121;-48
2023/01/25 17:03:49;;;;;;;14.55;7.40;;;;;;;0.13;84.68;98706.50;10284279;28;20316;-47
2023/01/25 17:08:48;;;;;;;18.08;10.82;;;;;;;0.21;84.55;98739.28;10274351;28;20061;-47
2023/01/25 17:13:53;;;;;;;17.58;10.07;;;;;;;0.41;84.60;98722.53;10287995;28;20077;-46
2023/01/25 17:18:58;;;;;;;16.23;10.00;;;;;;;0.78;84.57;98723.59;10288289;28;20518;-48
2023/01/25 17:23:59;;;;;;;19.27;9.27;;;;;;;0.90;82.90;98724.28;10288254;28;20081;-47
2023/01/25 17:29:01;;;;;;;14.43;8.85;;;;;;;0.48;83.79;98617.38;10288352;28;20914;-49
2023/01/25 17:34:02;;;;;;;57.50;24.50;;;;;;;1.33;83.26;98706.03;10357913;28;20068;-50
2023/01/25 17:39:05;;;;;;;37.20;22.77;;;;;;;1.05;81.87;98655.19;10322496;28;20473;-49
2023/01/25 17:44:04;;;;;;;44.25;27.63;;;;;;;1.08;81.39;98697.13;10316685;28;20067;-50
2023/01/25 17:49:05;;;;;;;101.38;53.05;;;;;;;1.28;81.28;98705.78;10329359;28;20029;-47
2023/01/25 17:54:05;;;;;;;27.10;15.45;;;;;;;1.33;82.19;98699.22;10246133;28;20145;-48
2023/01/25 17:59:07;;;;;;;45.20;27.10;;;;;;;1.46;81.66;98687.06;10291216;28;20524;-47
2023/01/25 18:04:07;;;;;;;38.05;24.50;;;;;;;1.43;81.56;98686.91;10264044;28;20068;-49
2023/01/25 18:09:06;;;;;;;44.88;27.80;;;;;;;1.52;81.90;98678.00;10266128;28;20057;-50
2023/01/25 18:14:09;;;;;;;50.33;27.55;;;;;;;1.62;81.59;98679.34;10286841;28;20089;-47
2023/01/25 18:19:09;;;;;;;326.33;146.20;;;;;;;1.72;81.51;98670.44;10285319;28;20465;-50
2023/01/25 18:24:26;;;;;;;141.52;74.18;;;;;;;1.58;80.39;98672.31;10286973;28;20069;-49
2023/01/25 18:29:36;;;;;;;137.27;64.32;;;;;;;1.60;80.69;98677.50;10286536;28;20057;-47
2023/01/25 18:34:35;;;;;;;39.55;23.08;;;;;;;1.48;80.59;98675.22;10286248;28;20065;-50
2023/01/25 18:39:34;;;;;;;65.20;39.05;;;;;;;1.58;80.97;98674.88;10286186;28;20030;-48
2023/01/25 18:44:33;;;;;;;35.60;21.10;;;;;;;1.54;80.14;98680.66;10284907;28;20038;-48
2023/01/25 18:49:32;;;;;;;21.88;11.93;;;;;;;1.47;79.62;98688.81;10285386;28;20029;-48
2023/01/25 18:54:31;;;;;;;;;;;;;;;1.22;79.66;98677.34;10287173;28;20515;-48
2023/01/25 18:59:30;;;;;;;80.55;47.03;;;;;;;1.01;80.72;98628.56;10285709;28;19917;-50
2023/01/25 19:04:29;;;;;;;27.80;17.88;;;;;;;1.28;79.84;98669.13;10282628;28;20064;-49
2023/01/25 19:09:28;;;;;;;62.30;33.17;;;;;;;1.28;80.13;98672.53;10285678;28;20049;-48
2023/01/25 19:14:27;;;;;;;24.95;15.57;;;;;;;0.79;79.61;98598.50;10284204;28;20408;-47
2023/01/25 19:19:30;;;;;;;50.33;23.58;;;;;;;1.13;79.66;98660.66;10284466;28;20065;-48
2023/01/25 19:24:29;;;;;;;56.28;27.13;;;;;;;1.03;79.90;98654.22;10285250;28;20505;-49
2023/01/25 19:29:28;;;;;;;19.15;10.52;;;;;;;0.99;80.09;98662.50;10285421;28;20429;-49
2023/01/25 19:34:27;;;;;;;190.13;118.75;;;;;;;1.00;81.54;98660.06;10284159;28;20047;-48
2023/01/25 19:39:26;;;;;;;;;;;;;;;1.14;81.97;98662.44;10285403;28;20045;-47
2023/01/25 19:44:25;;;;;;;32.42;19.25;;;;;;;1.32;81.98;98643.78;10282681;28;20349;-47
2023/01/25 19:49:24;;;;;;;21.23;10.88;;;;;;;1.31;81.09;98631.78;10282291;28;20058;-47
2023/01/25 19:54:23;;;;;;;35.85;18.30;;;;;;;1.22;81.08;98615.13;10284000;28;20048;-47
2023/01/25 19:59:24;;;;;;;94.65;48.42;;;;;;;0.91;82.47;98588.03;10283521;28;20520;-47
2023/01/25 20:04:23;;;;;;;65.82;33.38;;;;;;;0.88;81.85;98542.75;10251085;28;20596;-49
2023/01/25 20:09:26;;;;;;;;;;;;;;;1.35;81.92;98616.59;10289043;28;20090;-50
2023/01/25 20:14:25;;;;;;;176.75;89.65;;;;;;;1.24;81.94;98599.03;10284073;28;19948;-49
2023/01/25 20:19:24;;;;;;;20.75;11.45;;;;;;;1.30;81.87;98619.81;10283827;28;20026;-48
2023/01/25 20:24:23;;;;;;;15.20;9.07;;;;;;;1.06;82.33;98598.13;10284910;28;20040;-48
2023/01/25 20:29:22;;;;;;;19.75;10.77;;;;;;;1.01;82.29;98589.34;10286307;28;20161;-47
2023/01/25 20:34:22;;;;;;;22.20;11.23;;;;;;;0.95;82.24;98594.19;10270945;28;20072;-47
2023/01/25 20:39:21;;;;;;;25.42;12.20;;;;;;;0.92;82.15;98584.69;10290863;28;20077;-48
2023/01/25 20:44:21;;;;;;;69.18;33.20;;;;;;;1.10;82.49;98584.72;10289951;28;20065;-47
2023/01/25 20:49:19;;;;;;;;;;;;;;;1.19;83.11;98581.72;10291210;28;20068;-48
2023/01/25 20:54:20;;;;;;;77.05;34.05;;;;;;;1.22;83.19;98575.06;10289705;28;19957;-47
2023/01/25 20:59:19;;;;;;;42.58;21.55;;;;;;;1.09;83.16;98542.06;10289482;28;20076;-49
2023/01/25 21:04:18;;;;;;;79.93;34.83;;;;;;;1.35;82.56;98570.59;10286822;28;20077;-48
2023/01/25 21:09:16;;;;;;;38.58;18.13;;;;;;;1.44;82.63;98571.03;10288811;28;20029;-48
2023/01/25 21:14:15;;;;;;;20.52;11.10;;;;;;;1.48;82.86;98563.56;10286821;28;20025;-48
2023/01/25 21:19:14;;;;;;;18.67;9.75;;;;;;;1.46;82.41;98560.06;10288020;28;20535;-48
2023/01/25 21:24:13;;;;;;;28.60;17.33;;;;;;;1.45;81.48;98559.97;10287517;28;20560;-48
2023/01/25 21:29:12;;;;;;;32.00;16.23;;;;;;;0.96;82.40;98524.38;10287660;28;20046;-48
2023/01/25 21:34:11;;;;;;;;;;;;;;;0.93;82.12;98549.78;10288442;28;20072;-48
2023/01/25 21:39:10;;;;;;;24.30;12.95;;;;;;;0.57;82.73;98544.56;10286962;28;19960;-47
2023/01/25 21:54:44;;;;;;;23.15;11.38;;;;;;;0.05;85.15;98522.31;10285656;28;20453;-48
2023/01/25 21:59:43;;;;;;;25.88;12.93;;;;;;;0.03;85.49;98512.06;10287580;28;20500;-48
2023/01/25 22:04:42;;;;;;;;;;;;;;;-0.09;86.13;98519.03;10288529;28;20164;-48
2023/01/25 22:09:41;;;;;;;28.73;14.50;;;;;;;0.07;86.15;98520.72;10285889;28;20060;-48
2023/01/25 22:14:39;;;;;;;;;;;;;;;0.02;86.43;98507.72;10287870;28;20065;-48
2023/01/25 22:19:38;;;;;;;23.33;10.52;;;;;;;-0.19;87.08;98504.06;10286332;28;19928;-47
2023/01/25 22:24:37;;;;;;;;;;;;;;;-0.28;88.02;98504.44;10286571;28;20499;-49
2023/01/25 22:29:36;;;;;;;31.98;16.45;;;;;;;-0.17;87.84;98495.69;10286369;28;19922;-48
2023/01/25 22:34:36;;;;;;;;;;;;;;;-0.03;87.68;98472.59;10286660;28;20105;-47
2023/01/25 22:39:35;;;;;;;20.13;10.32;;;;;;;-0.22;87.68;98475.84;10284007;28;20380;-50
2023/01/25 22:44:34;;;;;;;25.83;13.55;;;;;;;-0.24;88.54;98487.63;10285706;28;20569;-49
2023/01/25 22:49:33;;;;;;;;;;;;;;;-0.04;88.71;98469.16;10284211;28;20487;-48
2023/01/25 22:54:32;;;;;;;26.08;12.82;;;;;;;0.02;88.54;98486.44;10284604;28;19945;-47
2023/01/25 22:59:31;;;;;;;32.60;15.80;;;;;;;0.17;88.08;98460.84;10285170;28;20048;-48
2023/01/25 23:04:29;;;;;;;;;;;;;;;-0.11;87.65;98449.22;10284645;28;20076;-47
2023/01/25 23:09:28;;;;;;;25.65;13.05;;;;;;;-0.23;88.55;98443.47;10277870;28;19913;-47
2023/01/25 23:19:44;;;;;;;26.20;12.35;;;;;;;-0.90;89.00;98349.91;10284606;28;20137;-49
2023/01/25 23:24:43;;;;;;;31.88;16.48;;;;;;;-0.21;89.35;98449.53;10282642;28;20037;-48
2023/01/25 23:29:42;;;;;;;;;;;;;;;-0.09;89.20;98439.09;10284383;28;20128;-47
2023/01/25 23:34:43;;;;;;;23.65;11.45;;;;;;;-0.64;89.10;98351.28;10286127;28;19960;-49
2023/01/25 23:39:42;;;;;;;24.13;11.50;;;;;;;-0.23;88.64;98429.06;10286772;28;20077;-47
2023/01/25 23:44:41;;;;;;;24.50;12.38;;;;;;;-0.54;88.53;98387.44;10287384;28;20112;-49